Time;durP1;ratioP1;P1;durP2;ratioP2;P2;SDS_P1;SDS_P2;PMS_P1;PMS_P2;Temp;Humidity;BMP_temperature;BMP_pressure;BME280_temperature;BME280_humidity;BME280_pressure;Samples;Min_cycle;Max_cycle;Signal;HPM_P1;HPM_P2
2022/03/07 00:02:04;;;;;;;10.85;9.75;;;-1.30;99.90;;;;;;5029641;28;20506;-76
2022/03/07 00:04:29;;;;;;;11.77;10.57;;;-1.30;99.90;;;;;;5028305;28;20026;-76
2022/03/07 00:06:55;;;;;;;11.88;10.68;;;-1.40;99.90;;;;;;5020977;28;20029;-76
2022/03/07 00:09:20;;;;;;;12.32;11.07;;;-1.40;99.90;;;;;;5030396;28;20800;-76
2022/03/07 00:11:46;;;;;;;13.02;11.73;;;-1.40;99.90;;;;;;5023383;28;20034;-76
2022/03/07 00:14:12;;;;;;;14.38;12.73;;;-1.40;99.90;;;;;;5019286;28;20026;-75
2022/03/07 00:16:37;;;;;;;12.88;11.57;;;-1.40;99.90;;;;;;5011526;28;20461;-75
2022/03/07 00:19:03;;;;;;;14.32;12.40;;;-1.50;99.90;;;;;;5018965;28;20030;-75
2022/03/07 00:21:29;;;;;;;14.18;12.73;;;-1.40;99.90;;;;;;5019021;28;20021;-75
2022/03/07 00:23:54;;;;;;;15.80;12.57;;;-1.40;99.90;;;;;;5010527;28;20029;-75
2022/03/07 00:26:20;;;;;;;14.73;13.10;;;-1.40;99.90;;;;;;5010670;28;20064;-76
2022/03/07 00:28:47;;;;;;;14.07;12.60;;;-1.40;99.90;;;;;;5010189;28;20125;-77
2022/03/07 00:31:14;;;;;;;26.88;22.83;;;-1.50;99.90;;;;;;5020957;28;20461;-76
2022/03/07 00:33:41;;;;;;;14.40;12.88;;;-1.40;99.90;;;;;;5021764;28;20022;-76
2022/03/07 00:36:07;;;;;;;15.02;13.50;;;-1.50;99.90;;;;;;5027199;28;20030;-76
2022/03/07 00:38:33;;;;;;;14.30;12.90;;;-1.50;99.90;;;;;;5018272;28;20029;-76
2022/03/07 00:40:59;;;;;;;16.10;13.23;;;-1.60;99.90;;;;;;5025651;28;20092;-76
2022/03/07 00:43:25;;;;;;;14.75;13.27;;;-1.70;99.90;;;;;;5019464;28;20026;-76
2022/03/07 00:45:50;;;;;;;15.30;13.70;;;-1.70;99.90;;;;;;5018272;28;20113;-76
2022/03/07 00:48:16;;;;;;;14.30;12.90;;;-1.70;99.90;;;;;;5024136;28;20514;-76
2022/03/07 00:50:46;;;;;;;16.00;14.45;;;-1.70;99.90;;;;;;5027589;28;20109;-76
2022/03/07 00:53:15;;;;;;;15.82;14.23;;;-1.70;99.90;;;;;;5028203;28;20065;-75
2022/03/07 00:55:40;;;;;;;15.75;13.90;;;-1.90;99.90;;;;;;5027487;28;20467;-75
2022/03/07 00:58:07;;;;;;;16.77;12.45;;;-1.80;99.90;;;;;;5023042;28;20033;-75
2022/03/07 01:00:36;;;;;;;13.85;12.32;;;-1.90;99.90;;;;;;5026211;28;20049;-75
2022/03/07 01:03:04;;;;;;;14.32;12.80;;;-1.90;99.90;;;;;;5025011;28;20070;-75
2022/03/07 01:05:29;;;;;;;15.10;13.40;;;-1.90;99.90;;;;;;5026508;28;20037;-75
2022/03/07 01:07:55;;;;;;;14.73;13.23;;;-1.90;99.90;;;;;;5024943;28;20029;-75
2022/03/07 01:10:21;;;;;;;14.25;12.85;;;-1.90;99.90;;;;;;5025247;28;20024;-75
2022/03/07 01:12:47;;;;;;;13.43;12.02;;;-2.00;99.90;;;;;;5024289;28;20021;-75
2022/03/07 01:15:14;;;;;;;12.55;11.25;;;-2.00;99.90;;;;;;5025821;28;20105;-76
2022/03/07 01:17:40;;;;;;;11.75;10.40;;;-2.10;99.90;;;;;;5026492;28;20487;-75
2022/03/07 01:20:07;;;;;;;14.90;10.82;;;-2.00;99.90;;;;;;5024078;28;20050;-76
2022/03/07 01:22:34;;;;;;;10.95;9.65;;;-2.00;99.90;;;;;;5026714;28;20044;-76
2022/03/07 01:24:59;;;;;;;14.48;10.77;;;-2.10;99.90;;;;;;5022616;28;20022;-75
2022/03/07 01:27:25;;;;;;;11.68;10.38;;;-2.10;99.90;;;;;;5029810;28;20373;-73
2022/03/07 01:29:51;;;;;;;12.18;10.98;;;-2.10;99.90;;;;;;5014421;28;20042;-73
2022/03/07 01:32:16;;;;;;;11.77;10.60;;;-2.10;99.90;;;;;;5013005;28;20025;-73
2022/03/07 01:34:42;;;;;;;12.38;11.07;;;-2.20;99.90;;;;;;5014779;28;20036;-73
2022/03/07 01:37:07;;;;;;;11.52;10.32;;;-2.20;99.90;;;;;;5014475;28;20017;-74
2022/03/07 01:39:33;;;;;;;11.02;9.93;;;-2.30;99.90;;;;;;5014423;28;20032;-73
2022/03/07 01:41:58;;;;;;;12.10;10.90;;;-2.30;99.90;;;;;;5014111;28;20443;-73
2022/03/07 01:44:27;;;;;;;11.68;10.57;;;-2.30;99.90;;;;;;5014395;28;20480;-73
2022/03/07 01:46:53;;;;;;;11.45;10.35;;;-2.30;99.90;;;;;;5025944;28;20368;-74
2022/03/07 01:49:19;;;;;;;11.75;10.52;;;-2.30;99.90;;;;;;5033817;28;20036;-74
2022/03/07 01:51:47;;;;;;;12.23;10.93;;;-2.40;99.90;;;;;;5024827;28;20049;-74
2022/03/07 01:54:14;;;;;;;11.65;10.55;;;-2.40;99.90;;;;;;5013994;28;20022;-75
2022/03/07 01:56:42;;;;;;;17.30;12.48;;;-2.40;99.90;;;;;;5014123;28;20033;-75
2022/03/07 01:59:11;;;;;;;12.38;11.18;;;-2.30;99.90;;;;;;5014029;28;20491;-73
2022/03/07 02:01:37;;;;;;;11.90;10.65;;;-2.30;99.90;;;;;;5013124;28;20500;-73
2022/03/07 02:04:03;;;;;;;12.15;10.73;;;-2.40;99.90;;;;;;5013902;28;20427;-75
2022/03/07 02:06:29;;;;;;;12.80;11.52;;;-2.40;99.90;;;;;;5012805;28;20037;-74
2022/03/07 02:08:56;;;;;;;12.98;11.57;;;-2.30;99.90;;;;;;5013869;28;20026;-74
2022/03/07 02:11:22;;;;;;;13.95;11.10;;;-2.30;99.90;;;;;;5013027;28;20045;-74
2022/03/07 02:13:47;;;;;;;11.88;10.68;;;-2.20;99.90;;;;;;5012889;28;20036;-73
2022/03/07 02:16:14;;;;;;;12.40;11.18;;;-2.20;99.90;;;;;;5016118;28;20097;-73
2022/03/07 02:18:40;;;;;;;12.27;10.98;;;-2.10;99.90;;;;;;5025918;28;20021;-73
2022/03/07 02:21:14;;;;;;;13.80;11.50;;;-2.00;99.90;;;;;;5026919;28;20029;-73
2022/03/07 02:23:40;;;;;;;11.75;10.55;;;-2.10;99.90;;;;;;5022563;28;20029;-74
2022/03/07 02:26:14;;;;;;;12.43;9.82;;;-2.10;99.90;;;;;;5020236;28;20057;-72
2022/03/07 02:28:41;;;;;;;11.50;10.38;;;-2.00;99.90;;;;;;5023464;28;20492;-73
2022/03/07 02:31:07;;;;;;;12.43;11.15;;;-2.00;99.90;;;;;;5015484;28;20450;-74
2022/03/07 02:33:33;;;;;;;11.90;10.70;;;-2.00;99.90;;;;;;5023826;28;20025;-73
2022/03/07 02:36:00;;;;;;;11.88;10.75;;;-2.00;99.90;;;;;;5029695;28;20022;-74
2022/03/07 02:38:25;;;;;;;12.80;11.50;;;-2.00;99.90;;;;;;5022702;28;20029;-73
2022/03/07 02:40:51;;;;;;;14.70;11.70;;;-2.00;99.90;;;;;;5019536;28;20082;-74
2022/03/07 02:43:17;;;;;;;13.32;11.93;;;-2.00;99.90;;;;;;5023200;28;20041;-74
2022/03/07 02:45:44;;;;;;;13.07;11.35;;;-2.00;99.90;;;;;;5030095;28;20096;-75
2022/03/07 02:48:09;;;;;;;13.98;12.57;;;-2.00;99.90;;;;;;5022059;28;20037;-75
2022/03/07 02:50:35;;;;;;;12.30;11.10;;;-2.10;99.90;;;;;;5026075;28;20030;-73
2022/03/07 02:53:01;;;;;;;13.65;12.35;;;-2.00;99.90;;;;;;5021712;28;20045;-74
2022/03/07 02:55:26;;;;;;;14.35;11.88;;;-2.00;99.90;;;;;;5019506;28;20021;-73
2022/03/07 02:57:52;;;;;;;13.38;12.18;;;-2.00;99.90;;;;;;5023191;28;20492;-75
2022/03/07 03:00:18;;;;;;;12.75;11.48;;;-2.00;99.90;;;;;;5026170;28;20024;-75
2022/03/07 03:02:43;;;;;;;13.25;11.95;;;-1.90;99.90;;;;;;5022898;28;20112;-74
2022/03/07 03:05:09;;;;;;;13.98;12.57;;;-1.90;99.90;;;;;;5018368;28;20033;-74
2022/03/07 03:07:35;;;;;;;12.70;11.43;;;-1.90;99.90;;;;;;5031523;28;20041;-74
2022/03/07 03:10:00;;;;;;;12.68;11.45;;;-1.90;99.90;;;;;;5014675;28;20109;-75
2022/03/07 03:12:26;;;;;;;14.18;12.82;;;-1.90;99.90;;;;;;5012767;28;20033;-75
2022/03/07 03:14:53;;;;;;;13.43;12.18;;;-1.80;99.90;;;;;;5014772;28;20048;-74
2022/03/07 03:17:18;;;;;;;13.98;12.60;;;-1.80;99.90;;;;;;5021342;28;20049;-75
2022/03/07 03:19:44;;;;;;;18.48;16.45;;;-1.90;99.90;;;;;;5026037;28;20527;-75
2022/03/07 03:22:09;;;;;;;13.98;12.30;;;-1.90;99.90;;;;;;5022397;28;20021;-75
2022/03/07 03:24:35;;;;;;;13.18;11.95;;;-1.90;99.90;;;;;;5017958;28;20395;-75
2022/03/07 03:27:01;;;;;;;13.65;12.27;;;-1.90;99.90;;;;;;5032652;28;20439;-76
2022/03/07 03:29:26;;;;;;;14.35;12.85;;;-1.90;99.90;;;;;;5018253;28;20116;-74
2022/03/07 03:31:52;;;;;;;14.85;13.38;;;-1.90;99.90;;;;;;5021625;28;20026;-74
2022/03/07 03:34:17;;;;;;;15.93;14.52;;;-1.90;99.90;;;;;;5024551;28;20075;-76
2022/03/07 03:36:43;;;;;;;14.43;13.13;;;-1.80;99.90;;;;;;5020263;28;20026;-76
2022/03/07 03:39:08;;;;;;;14.98;12.52;;;-1.80;99.90;;;;;;5017538;28;20026;-76
2022/03/07 03:41:34;;;;;;;14.55;12.30;;;-1.80;99.90;;;;;;5022099;28;20021;-74
2022/03/07 03:44:00;;;;;;;13.57;12.27;;;-1.80;99.90;;;;;;5027449;28;20333;-75
2022/03/07 03:46:25;;;;;;;14.65;13.15;;;-1.80;99.90;;;;;;5023493;28;20034;-75
2022/03/07 03:48:51;;;;;;;13.20;12.00;;;-1.80;99.90;;;;;;5025599;28;20030;-75
2022/03/07 03:51:16;;;;;;;13.50;12.20;;;-1.80;99.90;;;;;;5020169;28;20052;-74
2022/03/07 03:53:42;;;;;;;13.20;11.90;;;-1.80;99.90;;;;;;5017235;28;20049;-75
2022/03/07 03:56:08;;;;;;;13.88;12.48;;;-1.80;99.90;;;;;;5022806;28;20029;-75
2022/03/07 03:58:34;;;;;;;38.78;34.47;;;-1.80;99.90;;;;;;5025415;28;20034;-76
2022/03/07 04:00:59;;;;;;;16.60;14.52;;;-1.80;99.90;;;;;;5020026;28;20071;-76
2022/03/07 04:03:26;;;;;;;13.32;12.02;;;-1.90;99.90;;;;;;5017119;28;20033;-77
2022/03/07 04:05:52;;;;;;;13.63;12.30;;;-1.80;99.90;;;;;;5012097;28;20046;-75
2022/03/07 04:08:20;;;;;;;14.88;13.30;;;-1.90;99.90;;;;;;5013506;28;20065;-76
2022/03/07 04:10:46;;;;;;;13.68;12.20;;;-1.90;99.90;;;;;;5021833;28;20034;-74
2022/03/07 04:13:12;;;;;;;13.50;12.20;;;-1.90;99.90;;;;;;5023763;28;20117;-74
2022/03/07 04:15:38;;;;;;;14.18;11.30;;;-1.90;99.90;;;;;;5020328;28;20029;-74
2022/03/07 04:18:06;;;;;;;12.85;11.68;;;-1.90;99.90;;;;;;5018405;28;20017;-75
2022/03/07 04:20:32;;;;;;;13.30;12.10;;;-1.90;99.90;;;;;;5022703;28;20506;-74
2022/03/07 04:22:58;;;;;;;12.75;11.40;;;-1.90;99.90;;;;;;5011833;28;20097;-72
2022/03/07 04:25:24;;;;;;;13.05;11.75;;;-1.90;99.90;;;;;;5022161;28;20025;-72
2022/03/07 04:27:49;;;;;;;16.20;11.73;;;-1.90;99.90;;;;;;5018869;28;20037;-72
2022/03/07 04:30:15;;;;;;;11.77;10.68;;;-1.90;99.90;;;;;;5015552;28;20507;-72
2022/03/07 04:32:41;;;;;;;14.23;11.52;;;-1.90;99.90;;;;;;5015685;28;20029;-73
2022/03/07 04:35:08;;;;;;;12.70;10.40;;;-1.90;99.90;;;;;;5023172;28;20128;-73
2022/03/07 04:37:35;;;;;;;11.82;10.65;;;-1.80;99.90;;;;;;5035411;28;20576;-73
2022/03/07 04:40:02;;;;;;;11.52;10.43;;;-1.80;99.90;;;;;;5035438;28;20361;-75
2022/03/07 04:42:28;;;;;;;11.25;10.15;;;-1.80;99.90;;;;;;5021931;28;20492;-76
2022/03/07 04:44:53;;;;;;;10.80;9.80;;;-1.70;99.90;;;;;;5026050;28;20053;-73
2022/03/07 04:47:18;;;;;;;11.93;10.73;;;-1.80;99.90;;;;;;5028853;28;20447;-74
2022/03/07 04:49:44;;;;;;;14.20;11.07;;;-1.70;99.90;;;;;;5023298;28;20025;-75
2022/03/07 04:52:09;;;;;;;13.65;11.20;;;-1.70;99.90;;;;;;5021916;28;20033;-72
2022/03/07 04:54:35;;;;;;;11.73;10.65;;;-1.60;99.90;;;;;;5025128;28;20036;-75
2022/03/07 04:57:01;;;;;;;13.75;10.90;;;-1.70;99.90;;;;;;5028774;28;20435;-74
2022/03/07 04:59:26;;;;;;;11.95;10.75;;;-1.60;99.90;;;;;;5022599;28;20487;-74
2022/03/07 05:01:52;;;;;;;11.38;10.38;;;-1.70;99.90;;;;;;5019846;28;20030;-73
2022/03/07 05:04:18;;;;;;;11.88;10.68;;;-1.70;99.90;;;;;;5015289;28;20033;-73
2022/03/07 05:06:43;;;;;;;11.73;10.52;;;-1.70;99.90;;;;;;5028623;28;20029;-73
2022/03/07 05:09:09;;;;;;;12.00;10.90;;;-1.70;99.90;;;;;;5026943;28;20026;-73
2022/03/07 05:11:34;;;;;;;12.02;10.90;;;-1.70;99.90;;;;;;5026829;28;20175;-74
2022/03/07 05:14:00;;;;;;;11.80;10.70;;;-1.70;99.90;;;;;;5023373;28;20032;-75
2022/03/07 05:16:25;;;;;;;11.38;10.27;;;-1.70;99.90;;;;;;5020231;28;20483;-75
2022/03/07 05:18:51;;;;;;;12.75;11.63;;;-1.70;99.90;;;;;;5025739;28;20065;-73
2022/03/07 05:21:17;;;;;;;11.73;10.02;;;-1.80;99.90;;;;;;5028049;28;20026;-75
2022/03/07 05:23:42;;;;;;;11.25;10.18;;;-1.70;99.90;;;;;;5022305;28;20087;-74
2022/03/07 05:26:10;;;;;;;12.32;11.10;;;-1.70;99.90;;;;;;5032538;28;20025;-74
2022/03/07 05:28:54;;;;;;;18.73;15.18;;;-1.60;99.90;;;;;;5021579;28;20033;-74
2022/03/07 05:31:20;;;;;;;16.02;14.43;;;-1.60;99.90;;;;;;5020280;28;20494;-75
2022/03/07 05:33:45;;;;;;;22.45;19.38;;;-1.60;99.90;;;;;;5023332;28;20057;-74
2022/03/07 05:36:11;;;;;;;24.08;20.52;;;-1.60;99.90;;;;;;5027973;28;20507;-74
2022/03/07 05:38:36;;;;;;;14.80;13.20;;;-1.50;99.90;;;;;;5024716;28;20387;-77
2022/03/07 05:41:02;;;;;;;12.90;11.63;;;-1.50;99.90;;;;;;5020775;28;20415;-75
2022/03/07 05:43:28;;;;;;;12.90;11.60;;;-1.50;99.90;;;;;;5024650;28;20030;-76
2022/03/07 05:45:53;;;;;;;12.23;10.95;;;-1.50;99.90;;;;;;5019002;28;20103;-77
2022/03/07 05:48:19;;;;;;;11.45;10.40;;;-1.50;99.90;;;;;;5022174;28;20036;-75
2022/03/07 05:50:44;;;;;;;11.80;10.70;;;-1.50;99.90;;;;;;5027386;28;20113;-76
2022/03/07 05:53:10;;;;;;;12.05;10.85;;;-1.50;99.90;;;;;;5025413;28;20029;-74
2022/03/07 05:55:35;;;;;;;12.55;11.35;;;-1.50;99.90;;;;;;5019662;28;20063;-75
2022/03/07 05:58:01;;;;;;;12.82;11.52;;;-1.50;99.90;;;;;;5021883;28;20484;-75
2022/03/07 06:00:28;;;;;;;12.15;10.95;;;-1.50;99.90;;;;;;5027363;28;20018;-75
2022/03/07 06:02:54;;;;;;;12.27;11.10;;;-1.50;99.90;;;;;;5014501;28;20026;-72
2022/03/07 06:05:20;;;;;;;12.57;11.38;;;-1.50;99.90;;;;;;5025816;28;20110;-74
2022/03/07 06:07:45;;;;;;;11.55;10.45;;;-1.50;99.90;;;;;;5012819;28;20053;-75
2022/03/07 06:10:11;;;;;;;11.35;10.23;;;-1.60;99.90;;;;;;5016838;28;20651;-75
2022/03/07 06:12:37;;;;;;;12.27;11.18;;;-1.60;99.90;;;;;;5020816;28;20364;-75
2022/03/07 06:15:04;;;;;;;16.67;15.00;;;-1.60;99.90;;;;;;5024358;28;20048;-73
2022/03/07 06:17:31;;;;;;;14.85;13.30;;;-1.50;99.90;;;;;;5023191;28;20487;-74
2022/03/07 06:19:56;;;;;;;12.85;11.52;;;-1.50;99.90;;;;;;5018623;28;20048;-76
2022/03/07 06:22:22;;;;;;;13.38;10.30;;;-1.50;99.90;;;;;;5022159;28;20479;-74
2022/03/07 06:24:47;;;;;;;12.23;10.93;;;-1.50;99.90;;;;;;5026106;28;20084;-76
2022/03/07 06:27:13;;;;;;;11.93;10.82;;;-1.50;99.90;;;;;;5025002;28;20479;-73
2022/03/07 06:29:38;;;;;;;13.48;12.18;;;-1.50;99.90;;;;;;5019940;28;20112;-73
2022/03/07 06:32:04;;;;;;;12.93;11.57;;;-1.40;99.90;;;;;;5020738;28;20044;-73
2022/03/07 06:34:31;;;;;;;13.65;12.20;;;-1.50;99.90;;;;;;5013513;28;20084;-73
2022/03/07 06:36:57;;;;;;;13.55;11.63;;;-1.50;99.90;;;;;;5025041;28;20013;-73
2022/03/07 06:39:25;;;;;;;13.02;11.63;;;-1.40;99.90;;;;;;5020134;28;20472;-75
2022/03/07 06:41:51;;;;;;;12.43;11.18;;;-1.40;99.90;;;;;;5021403;28;20022;-73
2022/03/07 06:44:16;;;;;;;12.60;11.27;;;-1.50;99.90;;;;;;5025518;28;20080;-73
2022/03/07 06:46:42;;;;;;;13.82;12.43;;;-1.40;99.90;;;;;;5024648;28;20094;-74
2022/03/07 06:49:07;;;;;;;13.35;11.50;;;-1.50;99.90;;;;;;5017925;28;20044;-74
2022/03/07 06:51:33;;;;;;;12.90;11.60;;;-1.40;99.90;;;;;;5021756;28;20033;-75
2022/03/07 06:53:59;;;;;;;12.75;11.55;;;-1.30;99.90;;;;;;5011905;28;20048;-74
2022/03/07 06:56:24;;;;;;;13.63;12.27;;;-1.20;99.90;;;;;;5024389;28;20029;-73
2022/03/07 06:58:50;;;;;;;13.02;11.73;;;-1.40;99.90;;;;;;5019741;28;20499;-73
2022/03/07 07:01:15;;;;;;;13.52;12.23;;;-1.30;99.90;;;;;;5020397;28;20025;-74
2022/03/07 07:03:41;;;;;;;13.18;11.88;;;-1.30;99.90;;;;;;5026464;28;20026;-74
2022/03/07 07:06:06;;;;;;;13.70;12.25;;;-1.30;99.90;;;;;;5013046;28;20037;-75
2022/03/07 07:08:32;;;;;;;13.98;12.63;;;-1.20;99.90;;;;;;5024981;28;20496;-74
2022/03/07 07:10:58;;;;;;;12.70;11.60;;;-1.20;99.90;;;;;;5023418;28;20052;-74
2022/03/07 07:13:23;;;;;;;13.38;12.02;;;-1.10;99.90;;;;;;5018121;28;20029;-76
2022/03/07 07:15:55;;;;;;;13.43;12.13;;;-1.10;99.90;;;;;;5021869;28;20032;-75
2022/03/07 07:18:24;;;;;;;13.75;12.48;;;-1.00;99.90;;;;;;5024579;28;20018;-76
2022/03/07 07:20:50;;;;;;;13.20;12.00;;;-1.00;99.90;;;;;;5024381;28;20052;-74
2022/03/07 07:23:17;;;;;;;14.50;13.05;;;-0.90;99.90;;;;;;5017981;28;20029;-74
2022/03/07 07:25:43;;;;;;;14.93;12.43;;;-0.80;99.90;;;;;;5020368;28;20080;-74
2022/03/07 07:28:09;;;;;;;14.52;13.13;;;-0.70;99.90;;;;;;5025980;28;20483;-73
2022/03/07 07:30:34;;;;;;;14.40;12.90;;;-0.70;99.90;;;;;;5024893;28;20060;-74
2022/03/07 07:33:00;;;;;;;13.07;11.75;;;-0.70;99.90;;;;;;5025802;28;20120;-76
2022/03/07 07:35:25;;;;;;;13.02;11.73;;;-0.70;99.90;;;;;;5023184;28;20561;-75
2022/03/07 07:37:51;;;;;;;14.18;12.88;;;-0.60;99.90;;;;;;5017350;28;20018;-74
2022/03/07 07:40:17;;;;;;;12.80;11.60;;;-0.60;99.90;;;;;;5011132;28;20024;-74
2022/03/07 07:42:42;;;;;;;14.10;12.80;;;-0.60;99.90;;;;;;5030805;28;20022;-73
2022/03/07 07:45:09;;;;;;;12.98;11.75;;;-0.50;99.90;;;;;;5032143;28;20029;-74
2022/03/07 07:47:34;;;;;;;13.73;12.30;;;-0.50;99.90;;;;;;5013905;28;20526;-74
2022/03/07 07:50:00;;;;;;;14.18;12.80;;;-0.60;99.90;;;;;;5010910;28;20030;-74
2022/03/07 07:52:25;;;;;;;13.63;12.20;;;-0.60;99.90;;;;;;5010975;28;20026;-74
2022/03/07 07:54:51;;;;;;;14.25;12.90;;;-0.60;99.90;;;;;;5023153;28;20029;-74
2022/03/07 07:57:16;;;;;;;14.80;13.32;;;-0.60;99.90;;;;;;5017549;28;20057;-74
2022/03/07 07:59:42;;;;;;;14.07;12.70;;;-0.60;99.90;;;;;;5019803;28;20365;-74
2022/03/07 08:02:07;;;;;;;15.27;13.77;;;-0.70;99.90;;;;;;5024089;28;20026;-74
2022/03/07 08:04:33;;;;;;;26.83;22.83;;;-0.70;99.90;;;;;;5021846;28;20029;-73
2022/03/07 08:06:58;;;;;;;16.20;14.52;;;-0.70;99.90;;;;;;5013239;28;20030;-73
2022/03/07 08:09:24;;;;;;;14.85;13.45;;;-0.60;99.90;;;;;;5011951;28;20073;-73
2022/03/07 08:11:49;;;;;;;15.75;14.25;;;-0.70;99.90;;;;;;5029250;28;20030;-73
2022/03/07 08:14:15;;;;;;;14.48;13.07;;;-0.60;99.90;;;;;;5020978;28;20034;-74
2022/03/07 08:16:41;;;;;;;14.50;13.07;;;-0.70;99.90;;;;;;5011791;28;20037;-73
2022/03/07 08:19:07;;;;;;;15.27;13.88;;;-0.60;99.90;;;;;;5020914;28;20025;-73
2022/03/07 08:21:32;;;;;;;13.82;12.30;;;-0.50;99.90;;;;;;5012846;28;20014;-73
2022/03/07 08:24:00;;;;;;;14.98;13.57;;;-0.40;99.90;;;;;;5012090;28;20037;-73
2022/03/07 08:26:26;;;;;;;13.73;12.50;;;-0.40;99.90;;;;;;5018425;28;20403;-73
2022/03/07 08:28:52;;;;;;;13.90;12.63;;;-0.40;99.90;;;;;;5021962;28;20025;-73
2022/03/07 08:31:17;;;;;;;14.52;12.93;;;-0.40;99.90;;;;;;5011935;28;20400;-73
2022/03/07 08:33:43;;;;;;;14.48;12.98;;;-0.30;99.90;;;;;;5021036;28;20491;-73
2022/03/07 08:36:08;;;;;;;13.15;11.88;;;-0.20;99.90;;;;;;5014590;28;20050;-74
2022/03/07 08:38:34;;;;;;;12.95;11.73;;;-0.30;99.90;;;;;;5011477;28;20435;-74
2022/03/07 08:41:01;;;;;;;13.43;12.20;;;-0.40;99.90;;;;;;5018878;28;20436;-74
2022/03/07 08:43:26;;;;;;;13.13;11.82;;;-0.20;99.90;;;;;;5021209;28;20100;-74
2022/03/07 08:45:52;;;;;;;12.70;11.45;;;-0.40;99.90;;;;;;5015927;28;20148;-74
2022/03/07 08:48:17;;;;;;;13.00;11.70;;;-0.40;99.90;;;;;;5020666;28;20030;-75
2022/03/07 08:50:46;;;;;;;11.77;10.55;;;-0.30;99.90;;;;;;5023432;28;20045;-75
2022/03/07 08:53:12;;;;;;;12.45;11.10;;;-0.50;99.90;;;;;;5021448;28;20052;-74
2022/03/07 08:55:37;;;;;;;12.50;11.30;;;-0.50;99.90;;;;;;5016916;28;20025;-73
2022/03/07 08:58:03;;;;;;;12.73;11.52;;;-0.40;99.90;;;;;;5020106;28;20060;-74
2022/03/07 09:00:29;;;;;;;12.77;11.48;;;-0.40;99.90;;;;;;5023486;28;20022;-74
2022/03/07 09:02:54;;;;;;;12.77;11.48;;;-0.30;99.90;;;;;;5022500;28;20022;-74
2022/03/07 09:05:20;;;;;;;14.85;12.48;;;-0.20;99.90;;;;;;5016702;28;20463;-74
2022/03/07 09:07:45;;;;;;;12.35;11.18;;;0.00;99.90;;;;;;5019407;28;20026;-74
2022/03/07 09:10:11;;;;;;;21.02;16.42;;;0.10;99.90;;;;;;5023308;28;20636;-74
2022/03/07 09:12:37;;;;;;;36.92;26.30;;;0.00;99.90;;;;;;5024897;28;20017;-74
2022/03/07 09:15:05;;;;;;;13.90;12.52;;;0.10;99.90;;;;;;5021562;28;20100;-74
2022/03/07 09:17:31;;;;;;;13.88;12.57;;;0.10;99.90;;;;;;5021927;28;20057;-74
2022/03/07 09:19:57;;;;;;;14.63;12.43;;;0.20;99.90;;;;;;5026805;28;20079;-75
2022/03/07 09:22:23;;;;;;;12.73;11.50;;;0.30;99.90;;;;;;5013410;28;20076;-74
2022/03/07 09:24:49;;;;;;;12.85;11.65;;;0.40;99.90;;;;;;5025579;28;20026;-74
2022/03/07 09:27:15;;;;;;;12.70;11.40;;;0.20;99.90;;;;;;5026106;28;20027;-74
2022/03/07 09:29:40;;;;;;;14.27;12.85;;;0.50;99.90;;;;;;5024744;28;20034;-74
2022/03/07 09:32:06;;;;;;;13.43;12.23;;;0.40;99.90;;;;;;5029626;28;20034;-74
2022/03/07 09:34:33;;;;;;;13.77;12.55;;;0.40;99.90;;;;;;5022806;28;20030;-74
2022/03/07 09:36:59;;;;;;;14.10;12.73;;;0.50;99.90;;;;;;5030791;28;20014;-75
2022/03/07 09:39:24;;;;;;;13.75;12.45;;;0.30;99.90;;;;;;5022736;28;20014;-74
2022/03/07 09:41:50;;;;;;;12.55;11.45;;;0.10;99.90;;;;;;5024682;28;20021;-74
2022/03/07 09:44:16;;;;;;;13.40;12.13;;;0.30;99.90;;;;;;5031831;28;20025;-74
2022/03/07 09:46:41;;;;;;;12.40;11.10;;;0.50;99.90;;;;;;5034231;28;20068;-74
2022/03/07 09:49:07;;;;;;;14.05;12.55;;;0.50;99.90;;;;;;5025875;28;20029;-75
2022/03/07 09:51:32;;;;;;;12.98;11.68;;;0.70;99.90;;;;;;5025500;28;20533;-74
2022/03/07 09:53:58;;;;;;;11.70;10.50;;;0.70;99.90;;;;;;5024518;28;20109;-74
2022/03/07 09:56:25;;;;;;;13.15;11.73;;;0.50;99.90;;;;;;5025884;28;20022;-74
2022/03/07 09:58:51;;;;;;;11.52;10.32;;;0.60;99.90;;;;;;5025931;28;20058;-74
2022/03/07 10:01:19;;;;;;;11.82;10.73;;;0.80;99.90;;;;;;5024219;28;20056;-74
2022/03/07 10:03:45;;;;;;;11.43;9.60;;;0.90;99.90;;;;;;5026646;28;20352;-74
2022/03/07 10:06:18;;;;;;;9.80;8.90;;;0.90;99.90;;;;;;5028958;28;20033;-74
2022/03/07 10:08:53;;;;;;;10.68;8.63;;;0.70;99.90;;;;;;5029436;28;20036;-74
2022/03/07 10:11:19;;;;;;;9.60;8.73;;;0.90;99.90;;;;;;5028459;28;20029;-74
2022/03/07 10:13:54;;;;;;;9.65;8.73;;;0.90;99.90;;;;;;5017805;28;20057;-76
2022/03/07 10:16:21;;;;;;;9.43;8.53;;;0.90;99.90;;;;;;5018872;28;20018;-73
2022/03/07 10:18:54;;;;;;;9.32;8.43;;;1.10;99.90;;;;;;5020471;28;20120;-74
2022/03/07 10:21:27;;;;;;;9.30;8.40;;;1.10;99.90;;;;;;5031149;28;20017;-74
2022/03/07 10:23:55;;;;;;;8.57;7.78;;;1.20;99.90;;;;;;5022783;28;20416;-74
2022/03/07 10:26:21;;;;;;;8.50;7.65;;;1.30;99.90;;;;;;5020066;28;20022;-74
2022/03/07 10:28:57;;;;;;;8.82;7.93;;;1.30;99.90;;;;;;5021744;28;20503;-74
2022/03/07 10:31:24;;;;;;;9.38;8.40;;;1.40;99.90;;;;;;5026529;28;20168;-74
2022/03/07 10:34:04;;;;;;;8.65;7.85;;;1.50;99.90;;;;;;5048802;28;20055;-73
2022/03/07 10:36:34;;;;;;;8.40;7.65;;;1.40;99.90;;;;;;5007657;28;20531;-74
2022/03/07 10:39:01;;;;;;;8.80;8.00;;;1.10;99.90;;;;;;5019074;28;20045;-74
2022/03/07 10:41:41;;;;;;;8.68;7.85;;;1.20;99.90;;;;;;5024427;28;20036;-74
2022/03/07 10:44:10;;;;;;;11.02;9.73;;;1.20;99.90;;;;;;5025423;28;20506;-74
2022/03/07 10:46:36;;;;;;;15.63;11.70;;;1.20;99.90;;;;;;5011888;28;20026;-74
2022/03/07 10:49:02;;;;;;;8.52;7.68;;;1.30;99.90;;;;;;5013322;28;20036;-75
2022/03/07 10:51:28;;;;;;;8.15;7.35;;;1.20;99.90;;;;;;5012894;28;20152;-74
2022/03/07 10:53:54;;;;;;;8.57;7.70;;;1.00;99.90;;;;;;5013059;28;20105;-74
2022/03/07 10:56:21;;;;;;;8.25;7.45;;;1.20;99.90;;;;;;5012134;28;20121;-74
2022/03/07 10:58:54;;;;;;;7.63;6.82;;;1.30;99.90;;;;;;5012949;28;20042;-74
2022/03/07 11:01:28;;;;;;;7.57;6.82;;;1.50;99.90;;;;;;5022302;28;20028;-74
2022/03/07 11:03:53;;;;;;;8.00;7.30;;;1.30;99.90;;;;;;5032644;28;20048;-74
2022/03/07 11:06:19;;;;;;;7.95;7.15;;;1.40;99.90;;;;;;5032624;28;20022;-74
2022/03/07 11:08:46;;;;;;;7.60;6.80;;;1.60;99.90;;;;;;5032136;28;20379;-74
2022/03/07 11:11:13;;;;;;;7.70;7.00;;;1.70;99.90;;;;;;5012885;28;20038;-73
2022/03/07 11:13:40;;;;;;;8.93;7.30;;;1.70;99.90;;;;;;5011436;28;20124;-73
2022/03/07 11:16:05;;;;;;;9.45;7.43;;;1.70;99.90;;;;;;5011575;28;20026;-73
2022/03/07 11:18:32;;;;;;;8.93;7.75;;;2.00;99.90;;;;;;5024196;28;20029;-73
2022/03/07 11:21:00;;;;;;;8.55;7.20;;;2.10;99.90;;;;;;5019428;28;20109;-74
2022/03/07 11:23:26;;;;;;;7.68;6.97;;;2.40;99.90;;;;;;5026550;28;20053;-73
2022/03/07 11:25:54;;;;;;;7.75;6.95;;;2.60;99.90;;;;;;5030129;28;20021;-74
2022/03/07 11:28:25;;;;;;;6.45;5.85;;;2.80;99.90;;;;;;5020433;28;20036;-74
2022/03/07 11:30:50;;;;;;;9.00;6.50;;;3.00;99.90;;;;;;5018618;28;20041;-74
2022/03/07 11:33:18;;;;;;;7.22;6.60;;;2.90;99.90;;;;;;5012445;28;20391;-75
2022/03/07 11:35:49;;;;;;;7.13;6.53;;;3.10;99.90;;;;;;5046599;28;20028;-74
2022/03/07 11:38:20;;;;;;;7.28;6.57;;;3.10;99.90;;;;;;5020695;28;20064;-74
2022/03/07 11:41:06;;;;;;;8.30;6.50;;;3.10;99.90;;;;;;5017575;28;20026;-74
2022/03/07 11:43:35;;;;;;;6.82;6.13;;;3.00;99.90;;;;;;5019505;28;20180;-74
2022/03/07 11:46:02;;;;;;;6.80;6.10;;;2.80;99.90;;;;;;5047316;28;20033;-74
2022/03/07 11:48:42;;;;;;;6.78;6.18;;;2.70;99.90;;;;;;5019911;28;20022;-73
2022/03/07 11:51:20;;;;;;;6.70;6.00;;;2.90;99.90;;;;;;4999741;28;20030;-74
2022/03/07 11:53:46;;;;;;;7.53;6.70;;;3.00;99.90;;;;;;5025351;28;20029;-73
2022/03/07 11:56:36;;;;;;;6.75;6.15;;;3.00;99.90;;;;;;5021255;28;20025;-74
2022/03/07 11:59:04;;;;;;;6.80;6.15;;;3.00;99.90;;;;;;5012760;28;20034;-73
2022/03/07 12:01:31;;;;;;;6.53;5.85;;;3.00;99.90;;;;;;5011962;28;20014;-74
2022/03/07 12:04:14;;;;;;;6.63;5.90;;;3.30;99.90;;;;;;5025394;28;20030;-74
2022/03/07 12:06:51;;;;;;;7.50;6.78;;;3.80;99.90;;;;;;5012259;28;20036;-74
2022/03/07 12:09:27;;;;;;;7.45;5.97;;;4.40;99.90;;;;;;5022163;28;20033;-74
2022/03/07 12:12:00;;;;;;;6.20;5.60;;;4.60;99.90;;;;;;5026813;28;20030;-74
2022/03/07 12:14:32;;;;;;;6.25;5.53;;;5.30;99.90;;;;;;5011977;28;20029;-74
2022/03/07 12:17:01;;;;;;;6.43;5.03;;;5.70;99.90;;;;;;5011403;28;20013;-75
2022/03/07 12:19:28;;;;;;;7.68;5.30;;;6.00;99.50;;;;;;5024867;28;20033;-74
2022/03/07 12:21:53;;;;;;;5.82;5.18;;;5.90;98.50;;;;;;5011526;28;20022;-74
2022/03/07 12:24:21;;;;;;;7.45;5.65;;;6.70;98.50;;;;;;5025176;28;20025;-75
2022/03/07 12:26:49;;;;;;;5.68;5.13;;;6.70;98.30;;;;;;5019014;28;20026;-75
2022/03/07 12:29:20;;;;;;;6.00;5.18;;;7.20;97.00;;;;;;5017948;28;20089;-75
2022/03/07 12:31:58;;;;;;;5.80;4.63;;;7.40;96.30;;;;;;5007865;28;20033;-75